• Join FlightAware (Why Join?)
  • Login
  • US Flag 
09:07AM EST


 

Airport Tracker/Info


-or-


 

Live Flight TrackerFlight Track Log ✈ SWA896 ✈ 01-May-2013 ✈ KBUF - KLAS

Flight Track Log - Related Links

Times and Time Zones

All times are in EDT time to prevent confusion due to time zone crossing. See the SWA896 flight status page for this flight to view local times or setup timezone preferences in your user account.

Time Position Orientation Groundspeed Altitude Reporting Facility
EDT Latitude Longitude Course Direction KTS MPH feet Rate Location/Type
08:10AM 42.9333 -78.7500 202° Southwest 174 200 1,800  Level Buffalo TRACON
08:11AM 42.9167 -78.7667 216° Southwest 169 194 2,800 2,220 Climbing Buffalo TRACON
08:12AM 42.8117 -78.8369 206° Southwest 298 343 6,300 2,400 Climbing Cleveland Center
08:13AM 42.7372 -78.8731 200° South 290 334 8,900 2,400 Climbing Cleveland Center
08:14AM 42.6586 -78.9033 196° South 290 334 11,100 2,160 Climbing Cleveland Center
08:15AM 42.5633 -78.9511 200° South 327 376 13,300 2,340 Climbing Cleveland Center
08:16AM 42.3203 -79.0430 202° Southwest  Level FlightAware Approximate
08:16AM 42.4769 -79.0264 213° Southwest 368 423 15,800  Level Cleveland Center
08:17AM 42.4308 -79.1711 247° West 411 473 17,900 1,800 Climbing Cleveland Center
08:18AM 42.3908 -79.3125 249° West 404 465 19,400 1,740 Climbing Cleveland Center
08:19AM 42.3503 -79.4425 247° West 419 482 21,400 1,800 Climbing Cleveland Center
08:20AM 42.3081 -79.5892 249° West 425 489 23,100 1,740 Climbing Cleveland Center
08:21AM 42.2947 -79.7664 264° West 430 495 24,900 1,560 Climbing Cleveland Center
08:22AM 42.2939 -79.9375 270° West 442 509 26,300 1,320 Climbing Cleveland Center
08:23AM 42.2883 -80.1006 267° West 442 509 27,600 1,320 Climbing Cleveland Center
08:24AM 42.2847 -80.2717 268° West 442 509 29,000 1,440 Climbing Cleveland Center
08:25AM 42.2808 -80.4400 268° West 462 532 30,500 1,320 Climbing Cleveland Center
08:26AM 42.2767 -80.6083 268° West 456 525 31,700 1,140 Climbing Cleveland Center
08:27AM 42.2725 -80.7797 268° West 461 531 32,800 1,020 Climbing Cleveland Center
08:28AM 42.2658 -80.9478 267° West 456 525 33,800 900 Climbing Cleveland Center
08:29AM 42.2608 -81.1189 268° West 456 525 34,700 900 Climbing Cleveland Center
08:30AM 42.2539 -81.2675 266° West 456 525 35,600 600 Climbing Cleveland Center
08:31AM 42.2506 -81.4358 269° West 456 525 36,000 180 Climbing Cleveland Center
08:32AM 42.2453 -81.6014 268° West 451 519 36,000  Level Cleveland Center
08:33AM 42.2372 -81.7667 266° West 451 519 36,000  Level Cleveland Center
08:34AM 42.2314 -81.9292 267° West 446 513 36,000  Level Cleveland Center
08:35AM 42.2250 -82.0944 267° West 441 507 36,000  Level Cleveland Center
08:36AM 42.2167 -82.2569 266° West 441 507 36,000  Level Cleveland Center
08:37AM 42.2100 -82.4222 267° West 441 507 36,000  Level Cleveland Center
08:38AM 42.2008 -82.5900 266° West 441 507 36,000  Level Cleveland Center
08:39AM 42.1936 -82.7525 267° West 441 507 36,000  Level Cleveland Center
08:40AM 42.1864 -82.9175 267° West 441 507 36,000  Level Cleveland Center
08:41AM 42.1767 -83.0825 266° West 441 507 36,000  Level Cleveland Center
08:42AM 42.1683 -83.2669 267° West 441 507 36,000  Level Cleveland Center
08:43AM 42.1600 -83.4375 266° West 446 513 36,000  Level Cleveland Center
08:44AM 42.1475 -83.6050 264° West 446 513 36,000  Level Cleveland Center
08:45AM 42.1408 -83.7700 267° West 452 520 36,000  Level Cleveland Center
08:46AM 42.1319 -83.9375 266° West 452 520 36,000  Level Cleveland Center
08:47AM 42.1208 -84.1022 265° West 452 520 36,000  Level Cleveland Center
08:48AM 42.1133 -84.2669 267° West 447 514 36,000  Level Cleveland Center
08:51AM 42.0919 -84.6450 266° West 443 510 36,000  Level Chicago Center
08:52AM 42.0811 -84.8106 265° West 443 510 36,000  Level Chicago Center
08:53AM 42.0683 -85.0089 265° West 442 509 36,000  Level Chicago Center
08:54AM 42.0569 -85.1758 265° West 447 514 36,000  Level Chicago Center
08:55AM 42.0456 -85.3417 265° West 445 512 36,000  Level Chicago Center
08:56AM 42.0336 -85.5078 265° West 447 514 36,000  Level Chicago Center
08:57AM 42.0211 -85.6744 264° West 448 516 36,000  Level Chicago Center
08:58AM 42.0086 -85.8572 265° West 451 519 36,000  Level Chicago Center
08:59AM 41.9958 -86.0233 264° West 451 519 36,000  Level Chicago Center
09:00AM 41.9831 -86.1911 264° West 453 521 36,000  Level Chicago Center
09:01AM 41.9706 -86.3589 264° West 454 522 36,000  Level Chicago Center
09:02AM 41.9561 -86.5272 263° West 455 524 36,000  Level Chicago Center
09:03AM 41.9433 -86.7086 265° West 457 526 36,000  Level Chicago Center
09:04AM 41.9289 -86.8733 263° West 449 517 36,000  Level Chicago Center
09:05AM 41.9114 -87.0725 263° West 451 519 36,000  Level Chicago Center
09:06AM 41.8978 -87.2342 264° West 442 509 36,000  Level Chicago Center
09:07AM 41.8839 -87.3969 264° West 442 509 36,000  Level Chicago Center
09:08AM 41.8686 -87.5542 263° West 432 497 36,000  Level Chicago Center
09:09AM 41.8542 -87.7142 263° West 436 502 36,000  Level Chicago Center
09:10AM 41.8367 -87.9081 263° West 441 507 36,000  Level Chicago Center
09:11AM 41.8222 -88.0683 263° West 442 509 36,000  Level Chicago Center
09:12AM 41.8075 -88.2264 263° West 435 501 36,000  Level Chicago Center
09:13AM 41.7917 -88.3867 263° West 439 505 36,000  Level Chicago Center
09:14AM 41.7722 -88.5789 262° West 441 507 36,000  Level Chicago Center
09:15AM 41.7569 -88.7392 263° West 440 506 36,000  Level Chicago Center
09:16AM 41.7403 -88.8981 262° West 436 502 36,000  Level Chicago Center
09:17AM 41.7239 -89.0575 262° West 436 502 36,000  Level Chicago Center
09:18AM 41.7081 -89.2186 263° West 439 505 36,000  Level Chicago Center
09:19AM 41.6883 -89.4106 262° West 438 504 36,000  Level Chicago Center
09:20AM 41.6739 -89.5581 263° West 436 502 36,000  Level Chicago Center
09:21AM 41.6556 -89.7161 261° West 435 501 36,000  Level Chicago Center
09:22AM 41.6392 -89.8761 262° West 436 502 36,000  Level Chicago Center
09:24AM 41.6178 -90.0658 261° West 435 501 36,000  Level Chicago Center
09:25AM 41.6011 -90.2250 262° West 436 502 36,000  Level Chicago Center
09:26AM 41.5800 -90.3892 260° West 448 516 36,000  Level Chicago Center
09:27AM 41.5628 -90.5475 262° West 437 503 36,000  Level Chicago Center
09:28AM 41.5436 -90.7092 261° West 438 504 36,000  Level Chicago Center
09:29AM 41.5244 -90.8689 261° West 438 504 36,000  Level Chicago Center
09:30AM 41.5019 -91.0594 261° West 438 504 36,000  Level Chicago Center
09:31AM 41.4814 -91.2192 260° West 439 505 36,000  Level Chicago Center
09:32AM 41.4628 -91.3794 261° West 439 505 36,000  Level Chicago Center
09:33AM 41.4419 -91.5386 260° West 438 504 36,000  Level Chicago Center
09:34AM 41.4219 -91.6981 261° West 439 505 36,000  Level Chicago Center
09:35AM 41.3983 -91.8889 261° West 437 503 36,000  Level Chicago Center
09:36AM 41.3781 -92.0469 260° West 437 503 36,000  Level Chicago Center
09:37AM 41.3569 -92.2044 260° West 436 502 36,000  Level Chicago Center
09:38AM 41.3358 -92.3589 260° West 429 494 36,000  Level Chicago Center
09:39AM 41.3142 -92.5169 260° West 427 491 36,000  Level Chicago Center
09:40AM 41.2939 -92.6756 260° West 434 499 36,000  Level Chicago Center
09:40AM 41.2858 -92.7400 261° West 435 501 36,000  Level Minneapolis Center
09:41AM 41.2642 -92.8931 259° West 431 496 36,000  Level Minneapolis Center
09:42AM 41.2425 -93.0483 260° West 431 496 36,000  Level Minneapolis Center
09:43AM 41.2214 -93.2050 260° West 433 498 36,000  Level Minneapolis Center
09:44AM 41.1947 -93.3897 259° West 432 497 36,000  Level Minneapolis Center
09:45AM 41.1725 -93.5456 259° West 433 498 36,000  Level Minneapolis Center
09:46AM 41.1506 -93.6992 259° West 430 495 36,000  Level Minneapolis Center
09:48AM 41.1292 -93.8469 259° West 423 487 36,000  Level Minneapolis Center
09:49AM 41.1075 -94.0008 259° West 427 491 36,000  Level Minneapolis Center
09:50AM 41.0853 -94.1542 259° West 427 491 36,000  Level Minneapolis Center
09:51AM 41.0617 -94.3072 258° West 428 493 36,000  Level Minneapolis Center
09:52AM 41.0328 -94.4894 258° West 428 493 36,000  Level Minneapolis Center
09:53AM 41.0114 -94.6236 258° West 427 491 36,000  Level Minneapolis Center
09:54AM 40.9833 -94.8078 259° West 425 489 36,000  Level Minneapolis Center
09:55AM 40.9583 -94.9606 258° West 425 489 36,000  Level Minneapolis Center
09:56AM 40.9350 -95.1128 259° West 423 487 36,000  Level Minneapolis Center
09:57AM 40.9111 -95.2644 258° West 421 484 36,000  Level Minneapolis Center
09:58AM 40.8867 -95.4153 258° West 419 482 36,000  Level Minneapolis Center
09:59AM 40.8625 -95.5667 258° West 418 481 36,000  Level Minneapolis Center
10:00AM 40.8375 -95.7169 258° West 417 480 36,000  Level Minneapolis Center
10:01AM 40.8131 -95.8661 258° West 415 478 36,000  Level Minneapolis Center
10:02AM 40.7875 -96.0158 257° West 415 478 36,000  Level Minneapolis Center
10:03AM 40.7628 -96.1658 258° West 415 478 36,000  Level Minneapolis Center
10:04AM 40.7383 -96.3142 258° West 414 476 36,000  Level Minneapolis Center
10:05AM 40.7128 -96.4606 257° West 413 475 36,000  Level Minneapolis Center
10:06AM 40.6831 -96.6358 257° West 410 472 36,000  Level Minneapolis Center
10:07AM 40.6578 -96.7811 257° West 408 470 36,000  Level Minneapolis Center
10:08AM 40.6289 -96.9250 255° West 407 468 36,000  Level Minneapolis Center
10:09AM 40.5786 -97.0572 243° Southwest 405 466 36,000  Level Minneapolis Center
10:10AM 40.5328 -97.1908 246° West 403 464 36,000  Level Minneapolis Center
10:11AM 40.4900 -97.3250 247° West 400 460 36,000  Level Minneapolis Center
10:12AM 40.4467 -97.4625 248° West 401 461 36,000  Level Minneapolis Center
10:13AM 40.4122 -97.6050 252° West 406 467 36,000  Level Minneapolis Center
10:14AM 40.3839 -97.7783 258° West 405 466 36,000  Level Minneapolis Center
10:15AM 40.3592 -97.9203 257° West 400 460 36,000  Level Minneapolis Center
10:16AM 40.3286 -98.0922 257° West 401 461 36,000  Level Minneapolis Center
10:17AM 40.3078 -98.2058 257° West 401 461 36,000  Level Minneapolis Center
10:18AM 40.2769 -98.3747 257° West 397 457 36,000  Level Minneapolis Center
10:19AM 40.2514 -98.5186 257° West 401 461 36,000  Level Minneapolis Center
10:20AM 40.2253 -98.6594 256° West 398 458 36,000  Level Minneapolis Center
10:21AM 40.1983 -98.8011 256° West 400 460 36,000  Level Minneapolis Center
10:23AM 40.1725 -98.9425 257° West 399 459 36,000  Level Minneapolis Center
10:24AM 40.1464 -99.0822 256° West 396 456 36,000  Level Minneapolis Center
10:25AM 40.1200 -99.2219 256° West 395 455 36,000  Level Denver Center
10:26AM 40.0883 -99.3878 256° West 394 453 36,000  Level Denver Center
10:27AM 40.0619 -99.5269 256° West 394 453 36,000  Level Denver Center
10:28AM 40.0358 -99.6642 256° West 391 450 36,000  Level Denver Center
10:29AM 40.0086 -99.8011 255° West 388 447 36,000  Level Denver Center
10:30AM 39.9767 -99.9642 256° West 387 445 36,000  Level Denver Center
10:31AM 39.9500 -100.0983 256° West 383 441 36,000  Level Denver Center
10:32AM 39.9281 -100.2050 255° West 382 440 36,000  Level Denver Center
10:33AM 39.8942 -100.3808 256° West 382 440 36,000  Level Denver Center
10:34AM 39.8678 -100.5092 255° West 381 438 36,000  Level Denver Center
10:35AM 39.8375 -100.6564 255° West 380 437 36,000  Level Denver Center
10:36AM 39.8117 -100.7817 255° West 375 432 36,000  Level Denver Center
10:37AM 39.7811 -100.9283 255° West 375 432 36,000  Level Denver Center
10:38AM 39.7561 -101.0561 256° West 380 437 36,000  Level Denver Center
10:39AM 39.7300 -101.1792 255° West 371 427 36,000  Level Denver Center
10:40AM 39.6986 -101.3253 254° West 373 429 36,000  Level Denver Center
10:41AM 39.6731 -101.4519 255° West 376 433 36,000  Level Denver Center
10:42AM 39.6411 -101.5964 254° West 372 428 36,000  Level Denver Center
10:43AM 39.6153 -101.7222 255° West 376 433 36,000  Level Denver Center
10:44AM 39.5847 -101.8675 255° West 376 433 36,000  Level Denver Center
10:46AM 39.5572 -101.9925 254° West 376 433 36,000  Level Denver Center
10:47AM 39.5211 -102.1583 254° West 376 433 36,000  Level Denver Center
10:48AM 39.4944 -102.2850 255° West 380 437 36,000  Level Denver Center
10:49AM 39.4611 -102.4283 253° West 375 432 36,000  Level Denver Center
10:50AM 39.4322 -102.5625 254° West 383 441 36,000  Level Denver Center
10:51AM 39.4022 -102.6933 254° West 376 433 36,000  Level Denver Center
10:52AM 39.3744 -102.8242 255° West 375 432 36,000  Level Denver Center
10:53AM 39.3447 -102.9536 254° West 372 428 36,000  Level Denver Center
10:54AM 39.3158 -103.0833 254° West 372 428 36,000  Level Denver Center
10:55AM 39.2806 -103.2306 253° West 365 420 36,000  Level Denver Center
10:56AM 39.2531 -103.3583 255° West 366 421 36,000  Level Denver Center
10:57AM 39.2225 -103.4858 253° West 367 422 36,000  Level Denver Center
10:58AM 39.1925 -103.6125 253° West 367 422 36,000  Level Denver Center
10:59AM 39.1631 -103.7439 254° West 377 434 36,000  Level Denver Center
11:00AM 39.1317 -103.8747 253° West 378 435 36,000  Level Denver Center
11:01AM 39.1000 -104.0067 253° West 381 438 36,000  Level Denver Center
11:02AM 39.0697 -104.1381 254° West 380 437 36,000  Level Denver Center
11:03AM 39.0375 -104.2689 252° West 377 434 36,000  Level Denver Center
11:04AM 39.0017 -104.4214 253° West 378 435 36,000  Level Denver Center
11:05AM 38.9689 -104.5550 253° West 383 441 36,000  Level Denver Center
11:06AM 38.9369 -104.6853 253° West 379 436 36,000  Level Denver Center
11:07AM 38.9053 -104.8156 253° West 377 434 36,000  Level Denver Center
11:08AM 38.8733 -104.9453 252° West 375 432 36,000  Level Denver Center
11:09AM 38.8417 -105.0742 253° West 375 432 36,000  Level Denver Center
11:10AM 38.8108 -105.2014 253° West 371 427 36,000  Level Denver Center
11:11AM 38.7786 -105.3269 252° West 368 423 36,000  Level Denver Center
11:12AM 38.7481 -105.4519 253° West 364 419 36,000  Level Denver Center
11:14AM 38.7114 -105.5972 252° West 365 420 36,000  Level Denver Center
11:15AM 38.6797 -105.7228 252° West 367 422 36,000  Level Denver Center
11:16AM 38.6472 -105.8486 252° West 370 426 36,000  Level Denver Center
11:17AM 38.6147 -105.9722 251° West 364 419 36,000  Level Denver Center
11:18AM 38.5853 -106.0892 252° West 363 418 36,000  Level Denver Center
11:19AM 38.5522 -106.2142 251° West 368 423 36,000  Level Denver Center
11:20AM 38.5192 -106.3406 252° West 373 429 36,000  Level Denver Center
11:21AM 38.4806 -106.4903 252° West 370 426 36,000  Level Denver Center
11:22AM 38.4472 -106.6150 251° West 370 426 36,000  Level Denver Center
11:23AM 38.4133 -106.7392 251° West 370 426 36,000  Level Denver Center
11:24AM 38.3811 -106.8647 252° West 371 427 36,000  Level Denver Center
11:25AM 38.3547 -106.9669 252° West 376 433 36,000  Level Denver Center
11:26AM 38.3133 -107.1197 251° West 379 436 36,000  Level Denver Center
11:27AM 38.2719 -107.2694 251° West 379 436 36,000  Level Denver Center
11:28AM 38.2408 -107.3906 252° West 377 434 36,000  Level Denver Center
11:29AM 38.2008 -107.5322 250° West 378 435 36,000  Level Denver Center
11:30AM 38.1675 -107.6547 251° West 380 437 36,000  Level Denver Center
11:31AM 38.1300 -107.7931 251° West 373 429 36,000  Level Denver Center
11:32AM 38.0958 -107.9142 250° West 378 435 36,000  Level Denver Center
11:33AM 38.0625 -108.0369 251° West 375 432 36,000  Level Denver Center
11:34AM 38.0228 -108.1767 250° West 377 434 36,000  Level Denver Center
11:35AM 37.9892 -108.2978 251° West 379 436 36,000  Level Denver Center
11:36AM 37.9600 -108.3989 250° West 382 440 36,000  Level Denver Center
11:37AM 37.9139 -108.5586 250° West 380 437 36,000  Level Denver Center
11:38AM 37.8753 -108.7014 251° West 383 441 36,000  Level Denver Center
11:39AM 37.8400 -108.8219 250° West 383 441 36,000  Level Denver Center
11:41AM 37.7894 -108.9698 256° West  Level FlightAware Approximate
11:41AM 37.7686 -109.0911 256° West 394 453 36,000  Level Denver Center
11:43AM 37.7326 -109.2354 253° West  Level FlightAware Approximate
11:43AM 37.7017 -109.3603 253° West 389 448 36,000  Level Denver Center
11:45AM 37.6664 -109.5031 253° West 384 442 36,000  Level Denver Center
11:46AM 37.6344 -109.6283 252° West 389 448 36,000  Level Denver Center
11:47AM 37.6036 -109.7511 252° West 388 447 36,000  Level Denver Center
11:48AM 37.5675 -109.8947 252° West 387 445 36,000  Level Denver Center
11:49AM 37.5197 -110.0772 252° West 384 442 36,000 -240 Level Los Angeles Center
11:50AM 37.4992 -110.1578 252° West 382 440 35,600 -840 Descending Denver Center
11:51AM 37.4669 -110.2814 252° West 386 444 34,700 -960 Descending Denver Center
11:52AM 37.4153 -110.4869 252° West 386 444 33,200 -1,020 Descending Los Angeles Center
11:53AM 37.3939 -110.5647 251° West 389 448 32,600 -600 Descending Denver Center
11:54AM 37.3472 -110.7439 252° West 387 445 32,000 -240 Descending Los Angeles Center
11:55AM 37.3125 -110.8733 251° West 389 448 32,000  Level Los Angeles Center
11:56AM 37.2914 -110.9519 251° West 392 451 32,000  Level Denver Center
11:57AM 37.2636 -111.0544 251° West 391 450 32,000  Level Denver Center
11:58AM 37.2014 -111.2889 252° West 393 452 32,000  Level Los Angeles Center
11:59AM 37.1878 -111.3397 251° West 393 452 32,000  Level Denver Center
12:01PM 37.1308 -111.5472 251° West 393 452 32,000  Level Los Angeles Center
12:02PM 37.0969 -111.6769 252° West 392 451 32,000  Level Los Angeles Center
12:03PM 37.0597 -111.8094 251° West 399 459 32,000  Level Los Angeles Center
12:03PM 37.0378 -111.8894 251° West 400 460 32,000 -780 Level Denver Center
12:05PM 37.0089 -112.1072 261° West 403 464 30,400 -1,080 Descending Los Angeles Center
12:06PM 37.0364 -112.2328 285° West 382 440 29,300 -1,200 Descending Los Angeles Center
12:07PM 37.0261 -112.3569 264° West 387 445 28,000 -660 Descending Los Angeles Center
12:08PM 36.9861 -112.4836 248° West 392 451 28,000  Level Los Angeles Center
12:09PM 36.9542 -112.6125 253° West 389 448 28,000  Level Los Angeles Center
12:10PM 36.9153 -112.7694 253° West 392 451 28,000  Level Los Angeles Center
12:11PM 36.8803 -112.9053 252° West 403 464 28,000  Level Los Angeles Center
12:12PM 36.8453 -113.0417 252° West 409 471 28,000  Level Los Angeles Center
12:13PM 36.8114 -113.1758 253° West 407 468 28,000  Level Los Angeles Center
12:14PM 36.7753 -113.3122 252° West 412 474 28,000  Level Los Angeles Center
12:15PM 36.7417 -113.4503 253° West 415 478 28,000 -840 Level Los Angeles Center
12:16PM 36.6992 -113.6153 252° West 417 480 26,300 -1,980 Descending Los Angeles Center
12:17PM 36.6650 -113.7447 252° West 403 464 24,000 -2,040 Descending Los Angeles Center
12:18PM 36.6378 -113.8433 251° West 388 447 22,200 -2,100 Descending Los Angeles Center
12:19PM 36.6017 -113.9872 253° West 370 426 19,700 -2,220 Descending Los Angeles Center
12:20PM 36.5681 -114.1025 250° West 359 413 17,700 -2,040 Descending Los Angeles Center
12:21PM 36.5178 -114.2108 240° Southwest 361 415 15,600 -2,160 Descending Los Angeles Center
12:22PM 36.4669 -114.3208 240° Southwest 355 409 13,300 -2,040 Descending Los Angeles Center
12:23PM 36.4372 -114.3931 243° Southwest 339 390 12,400 -1,020 Descending Los Angeles Center
12:23PM 36.4203 -114.4203 232° Southwest 340 391 12,300 -540 Descending Los Angeles Center
12:24PM 36.3872 -114.4797 235° Southwest 309 356 11,900 -420 Descending Los Angeles Center
12:24PM 36.3447 -114.4931 194° South 314 361 11,900 -600 Level Los Angeles Center
12:25PM 36.3064 -114.5044 193° South 307 353 11,300 -1,500 Descending Los Angeles Center
12:25PM 36.2614 -114.5111 187° South 306 352 10,400 -1,560 Descending Los Angeles Center
12:26PM 36.2283 -114.5231 196° South 307 353 9,900 -1,380 Descending Los Angeles Center
12:26PM 36.1914 -114.5600 219° Southwest 296 341 9,000 -1,260 Descending Los Angeles Center
12:27PM 36.1639 -114.6033 232° Southwest 300 345 8,500 -900 Descending Los Angeles Center
12:27PM 36.1383 -114.6381 228° Southwest 292 336 8,100 -600 Descending Los Angeles Center
12:28PM 36.1144 -114.6733 230° Southwest 309 356 8,000 -120 Descending Los Angeles Center
12:28PM 36.0811 -114.7181 227° Southwest 299 344 8,000 -120 Level Los Angeles Center
12:29PM 36.0731 -114.7594 256° West 270 311 7,900 -900 Descending Los Angeles Center
12:29PM 36.0742 -114.8086 272° West 278 320 7,100 -1,200 Descending Los Angeles Center
12:30PM 36.0731 -114.8578 268° West 259 298 6,600 -1,200 Descending Los Angeles Center
12:31PM 36.0744 -114.8947 273° West 263 303 5,900 -1,200 Descending Los Angeles Center
12:31PM 36.0733 -114.9375 268° West 223 257 5,400 -1,200 Descending Los Angeles Center
12:32PM 36.0714 -114.9783 267° West 220 253 4,700 -1,140 Descending Los Angeles Center
12:32PM 36.0731 -114.9961 277° West 177 204 4,300 -1,260 Descending Los Angeles Center
12:33PM 36.0747 -115.0314 273° West 178 205 3,400 -1,200 Descending Los Angeles Center
12:33PM 36.0733 -115.0467 264° West 155 178 3,200 -780 Descending Los Angeles Center
12:34PM 36.0739 -115.0864 271° West 164 189 2,600 -720 Descending Los Angeles Center
12:35PM 36.0747 -115.1403 271° West 160 184 1,900 -720 Descending Los Angeles Center